sensor_id;sensor_type;location;lat;lon;timestamp;pressure;altitude;pressure_sealevel;temperature;humidity
57250;BME280;43102;52.014;-0.680;2023-09-19T00:00:00;99762;;;18.26;53.97
57250;BME280;43102;52.014;-0.680;2023-09-19T00:01:00;99762;;;18.26;53.97
57250;BME280;43102;52.014;-0.680;2023-09-19T00:02:00;99762;;;18.26;53.97
57250;BME280;43102;52.014;-0.680;2023-09-19T00:03:00;99759;;;18.33;53.31
57250;BME280;43102;52.014;-0.680;2023-09-19T00:04:00;99759;;;18.33;53.31
57250;BME280;43102;52.014;-0.680;2023-09-19T00:05:00;99759;;;18.33;53.31
57250;BME280;43102;52.014;-0.680;2023-09-19T00:06:00;99759;;;18.33;53.31
57250;BME280;43102;52.014;-0.680;2023-09-19T00:07:00;99759;;;18.33;53.31
57250;BME280;43102;52.014;-0.680;2023-09-19T00:08:00;99756;;;18.33;53.40
57250;BME280;43102;52.014;-0.680;2023-09-19T00:09:00;99756;;;18.33;53.40
57250;BME280;43102;52.014;-0.680;2023-09-19T00:10:00;99756;;;18.33;53.40
57250;BME280;43102;52.014;-0.680;2023-09-19T00:11:00;99756;;;18.33;53.40
57250;BME280;43102;52.014;-0.680;2023-09-19T00:12:00;99756;;;18.33;53.40
57250;BME280;43102;52.014;-0.680;2023-09-19T00:13:01;99755;;;18.23;54.05
57250;BME280;43102;52.014;-0.680;2023-09-19T00:14:00;99755;;;18.23;54.05
57250;BME280;43102;52.014;-0.680;2023-09-19T00:15:00;99755;;;18.23;54.05
57250;BME280;43102;52.014;-0.680;2023-09-19T00:16:00;99755;;;18.23;54.05
57250;BME280;43102;52.014;-0.680;2023-09-19T00:17:00;99755;;;18.23;54.05
57250;BME280;43102;52.014;-0.680;2023-09-19T00:18:00;99771;;;18.30;53.74
57250;BME280;43102;52.014;-0.680;2023-09-19T00:19:00;99771;;;18.30;53.74
57250;BME280;43102;52.014;-0.680;2023-09-19T00:20:00;99771;;;18.30;53.74
57250;BME280;43102;52.014;-0.680;2023-09-19T00:21:00;99771;;;18.30;53.74
57250;BME280;43102;52.014;-0.680;2023-09-19T00:22:00;99771;;;18.30;53.74
57250;BME280;43102;52.014;-0.680;2023-09-19T00:23:00;99777;;;18.30;53.75
57250;BME280;43102;52.014;-0.680;2023-09-19T00:24:00;99777;;;18.30;53.75
57250;BME280;43102;52.014;-0.680;2023-09-19T00:25:00;99777;;;18.30;53.75
57250;BME280;43102;52.014;-0.680;2023-09-19T00:26:00;99777;;;18.30;53.75
57250;BME280;43102;52.014;-0.680;2023-09-19T00:27:00;99777;;;18.30;53.75
57250;BME280;43102;52.014;-0.680;2023-09-19T00:28:00;99795;;;18.20;55.00
57250;BME280;43102;52.014;-0.680;2023-09-19T00:29:00;99795;;;18.20;55.00
57250;BME280;43102;52.014;-0.680;2023-09-19T00:30:00;99795;;;18.20;55.00
57250;BME280;43102;52.014;-0.680;2023-09-19T00:31:00;99795;;;18.20;55.00
57250;BME280;43102;52.014;-0.680;2023-09-19T00:32:00;99795;;;18.20;55.00
57250;BME280;43102;52.014;-0.680;2023-09-19T00:33:00;99795;;;18.27;54.26
57250;BME280;43102;52.014;-0.680;2023-09-19T00:34:00;99795;;;18.27;54.26
57250;BME280;43102;52.014;-0.680;2023-09-19T00:35:00;99795;;;18.27;54.26
57250;BME280;43102;52.014;-0.680;2023-09-19T00:36:00;99795;;;18.27;54.26
57250;BME280;43102;52.014;-0.680;2023-09-19T00:37:00;99795;;;18.27;54.26
57250;BME280;43102;52.014;-0.680;2023-09-19T00:38:00;99787;;;18.20;54.80
57250;BME280;43102;52.014;-0.680;2023-09-19T00:39:00;99787;;;18.20;54.80
57250;BME280;43102;52.014;-0.680;2023-09-19T00:40:00;99787;;;18.20;54.80
57250;BME280;43102;52.014;-0.680;2023-09-19T00:41:00;99787;;;18.20;54.80
57250;BME280;43102;52.014;-0.680;2023-09-19T00:42:00;99787;;;18.20;54.80
57250;BME280;43102;52.014;-0.680;2023-09-19T00:43:00;99785;;;18.23;54.46
57250;BME280;43102;52.014;-0.680;2023-09-19T00:44:00;99785;;;18.23;54.46
57250;BME280;43102;52.014;-0.680;2023-09-19T00:45:00;99785;;;18.23;54.46
57250;BME280;43102;52.014;-0.680;2023-09-19T00:46:00;99785;;;18.23;54.46
57250;BME280;43102;52.014;-0.680;2023-09-19T00:47:00;99785;;;18.23;54.46
57250;BME280;43102;52.014;-0.680;2023-09-19T00:48:00;99782;;;18.21;54.91
57250;BME280;43102;52.014;-0.680;2023-09-19T00:49:00;99782;;;18.21;54.91
57250;BME280;43102;52.014;-0.680;2023-09-19T00:50:00;99782;;;18.21;54.91
57250;BME280;43102;52.014;-0.680;2023-09-19T00:51:02;99782;;;18.21;54.91
57250;BME280;43102;52.014;-0.680;2023-09-19T00:52:00;99782;;;18.21;54.91
57250;BME280;43102;52.014;-0.680;2023-09-19T00:53:00;99777;;;18.29;54.88
57250;BME280;43102;52.014;-0.680;2023-09-19T00:54:00;99777;;;18.29;54.88
57250;BME280;43102;52.014;-0.680;2023-09-19T00:55:00;99777;;;18.29;54.88
57250;BME280;43102;52.014;-0.680;2023-09-19T00:56:00;99777;;;18.29;54.88
57250;BME280;43102;52.014;-0.680;2023-09-19T00:57:00;99777;;;18.29;54.88
57250;BME280;43102;52.014;-0.680;2023-09-19T00:58:00;99794;;;18.26;55.10
57250;BME280;43102;52.014;-0.680;2023-09-19T00:59:00;99794;;;18.26;55.10
57250;BME280;43102;52.014;-0.680;2023-09-19T01:00:00;99794;;;18.26;55.10
57250;BME280;43102;52.014;-0.680;2023-09-19T01:01:00;99794;;;18.26;55.10
57250;BME280;43102;52.014;-0.680;2023-09-19T01:02:00;99794;;;18.26;55.10
57250;BME280;43102;52.014;-0.680;2023-09-19T01:03:00;99783;;;18.09;55.42
57250;BME280;43102;52.014;-0.680;2023-09-19T01:04:00;99783;;;18.09;55.42
57250;BME280;43102;52.014;-0.680;2023-09-19T01:05:00;99783;;;18.09;55.42
57250;BME280;43102;52.014;-0.680;2023-09-19T01:06:00;99783;;;18.09;55.42
57250;BME280;43102;52.014;-0.680;2023-09-19T01:07:00;99783;;;18.09;55.42
57250;BME280;43102;52.014;-0.680;2023-09-19T01:08:00;99790;;;18.29;54.64
57250;BME280;43102;52.014;-0.680;2023-09-19T01:09:00;99790;;;18.29;54.64
57250;BME280;43102;52.014;-0.680;2023-09-19T01:10:00;99790;;;18.29;54.64
57250;BME280;43102;52.014;-0.680;2023-09-19T01:11:01;99790;;;18.29;54.64
57250;BME280;43102;52.014;-0.680;2023-09-19T01:12:01;99790;;;18.29;54.64
57250;BME280;43102;52.014;-0.680;2023-09-19T01:14:02;99779;;;18.27;54.59
57250;BME280;43102;52.014;-0.680;2023-09-19T01:15:02;99779;;;18.27;54.59
57250;BME280;43102;52.014;-0.680;2023-09-19T01:17:09;99779;;;18.27;54.59
57250;BME280;43102;52.014;-0.680;2023-09-19T01:21:19;99777;;;18.25;54.77
57250;BME280;43102;52.014;-0.680;2023-09-19T01:23:04;99784;;;18.23;55.05
57250;BME280;43102;52.014;-0.680;2023-09-19T01:29:08;99762;;;18.23;55.51
57250;BME280;43102;52.014;-0.680;2023-09-19T01:30:06;99762;;;18.23;55.51
57250;BME280;43102;52.014;-0.680;2023-09-19T01:31:00;99762;;;18.23;55.51
57250;BME280;43102;52.014;-0.680;2023-09-19T01:32:01;99762;;;18.23;55.51
57250;BME280;43102;52.014;-0.680;2023-09-19T01:33:00;99774;;;18.19;55.15
57250;BME280;43102;52.014;-0.680;2023-09-19T01:34:01;99774;;;18.19;55.15
57250;BME280;43102;52.014;-0.680;2023-09-19T01:35:00;99774;;;18.19;55.15
57250;BME280;43102;52.014;-0.680;2023-09-19T01:36:00;99774;;;18.19;55.15
57250;BME280;43102;52.014;-0.680;2023-09-19T01:37:00;99774;;;18.19;55.15
57250;BME280;43102;52.014;-0.680;2023-09-19T01:38:00;99773;;;18.17;55.38
57250;BME280;43102;52.014;-0.680;2023-09-19T01:39:00;99773;;;18.17;55.38
57250;BME280;43102;52.014;-0.680;2023-09-19T01:40:02;99773;;;18.17;55.38
57250;BME280;43102;52.014;-0.680;2023-09-19T01:41:01;99773;;;18.17;55.38
57250;BME280;43102;52.014;-0.680;2023-09-19T01:42:03;99773;;;18.17;55.38
57250;BME280;43102;52.014;-0.680;2023-09-19T01:43:06;99780;;;18.05;55.71
57250;BME280;43102;52.014;-0.680;2023-09-19T01:44:00;99780;;;18.05;55.71
57250;BME280;43102;52.014;-0.680;2023-09-19T01:45:06;99780;;;18.05;55.71
57250;BME280;43102;52.014;-0.680;2023-09-19T01:46:04;99780;;;18.05;55.71
57250;BME280;43102;52.014;-0.680;2023-09-19T01:47:01;99780;;;18.05;55.71
57250;BME280;43102;52.014;-0.680;2023-09-19T01:48:05;99774;;;18.01;55.96
57250;BME280;43102;52.014;-0.680;2023-09-19T01:50:02;99774;;;18.01;55.96
57250;BME280;43102;52.014;-0.680;2023-09-19T01:51:01;99774;;;18.01;55.96
57250;BME280;43102;52.014;-0.680;2023-09-19T01:53:04;99764;;;18.06;55.86
57250;BME280;43102;52.014;-0.680;2023-09-19T01:54:01;99764;;;18.06;55.86
57250;BME280;43102;52.014;-0.680;2023-09-19T01:55:02;99764;;;18.06;55.86
57250;BME280;43102;52.014;-0.680;2023-09-19T01:56:00;99764;;;18.06;55.86
57250;BME280;43102;52.014;-0.680;2023-09-19T01:57:03;99764;;;18.06;55.86
57250;BME280;43102;52.014;-0.680;2023-09-19T01:58:04;99762;;;18.04;56.38
57250;BME280;43102;52.014;-0.680;2023-09-19T01:59:02;99762;;;18.04;56.38
57250;BME280;43102;52.014;-0.680;2023-09-19T02:00:02;99762;;;18.04;56.38
57250;BME280;43102;52.014;-0.680;2023-09-19T02:01:00;99762;;;18.04;56.38
57250;BME280;43102;52.014;-0.680;2023-09-19T02:02:00;99762;;;18.04;56.38
57250;BME280;43102;52.014;-0.680;2023-09-19T02:03:00;99762;;;18.05;55.81
57250;BME280;43102;52.014;-0.680;2023-09-19T02:04:00;99762;;;18.05;55.81
57250;BME280;43102;52.014;-0.680;2023-09-19T02:05:00;99762;;;18.05;55.81
57250;BME280;43102;52.014;-0.680;2023-09-19T02:06:00;99762;;;18.05;55.81
57250;BME280;43102;52.014;-0.680;2023-09-19T02:07:00;99762;;;18.05;55.81
57250;BME280;43102;52.014;-0.680;2023-09-19T02:08:00;99758;;;18.01;56.28
57250;BME280;43102;52.014;-0.680;2023-09-19T02:09:00;99758;;;18.01;56.28
57250;BME280;43102;52.014;-0.680;2023-09-19T02:10:00;99758;;;18.01;56.28
57250;BME280;43102;52.014;-0.680;2023-09-19T02:11:00;99758;;;18.01;56.28
57250;BME280;43102;52.014;-0.680;2023-09-19T02:12:00;99758;;;18.01;56.28
57250;BME280;43102;52.014;-0.680;2023-09-19T02:13:00;99758;;;17.98;56.01
57250;BME280;43102;52.014;-0.680;2023-09-19T02:14:00;99758;;;17.98;56.01
57250;BME280;43102;52.014;-0.680;2023-09-19T02:15:00;99758;;;17.98;56.01
57250;BME280;43102;52.014;-0.680;2023-09-19T02:16:00;99758;;;17.98;56.01
57250;BME280;43102;52.014;-0.680;2023-09-19T02:17:00;99758;;;17.98;56.01
57250;BME280;43102;52.014;-0.680;2023-09-19T02:18:00;99761;;;18.08;55.53
57250;BME280;43102;52.014;-0.680;2023-09-19T02:19:00;99761;;;18.08;55.53
57250;BME280;43102;52.014;-0.680;2023-09-19T02:20:00;99761;;;18.08;55.53
57250;BME280;43102;52.014;-0.680;2023-09-19T02:21:00;99761;;;18.08;55.53
57250;BME280;43102;52.014;-0.680;2023-09-19T02:22:00;99761;;;18.08;55.53
57250;BME280;43102;52.014;-0.680;2023-09-19T02:23:00;99755;;;17.98;55.96
57250;BME280;43102;52.014;-0.680;2023-09-19T02:24:00;99755;;;17.98;55.96
57250;BME280;43102;52.014;-0.680;2023-09-19T02:25:00;99755;;;17.98;55.96
57250;BME280;43102;52.014;-0.680;2023-09-19T02:26:00;99755;;;17.98;55.96
57250;BME280;43102;52.014;-0.680;2023-09-19T02:27:00;99755;;;17.98;55.96
57250;BME280;43102;52.014;-0.680;2023-09-19T02:28:00;99762;;;17.96;56.27
57250;BME280;43102;52.014;-0.680;2023-09-19T02:29:00;99762;;;17.96;56.27
57250;BME280;43102;52.014;-0.680;2023-09-19T02:30:00;99762;;;17.96;56.27
57250;BME280;43102;52.014;-0.680;2023-09-19T02:31:00;99762;;;17.96;56.27
57250;BME280;43102;52.014;-0.680;2023-09-19T02:32:00;99762;;;17.96;56.27
57250;BME280;43102;52.014;-0.680;2023-09-19T02:33:00;99755;;;17.86;56.62
57250;BME280;43102;52.014;-0.680;2023-09-19T02:34:00;99755;;;17.86;56.62
57250;BME280;43102;52.014;-0.680;2023-09-19T02:35:00;99755;;;17.86;56.62
57250;BME280;43102;52.014;-0.680;2023-09-19T02:36:00;99755;;;17.86;56.62
57250;BME280;43102;52.014;-0.680;2023-09-19T02:37:00;99755;;;17.86;56.62
57250;BME280;43102;52.014;-0.680;2023-09-19T02:38:00;99758;;;17.89;55.97
57250;BME280;43102;52.014;-0.680;2023-09-19T02:39:00;99758;;;17.89;55.97
57250;BME280;43102;52.014;-0.680;2023-09-19T02:40:00;99758;;;17.89;55.97
57250;BME280;43102;52.014;-0.680;2023-09-19T02:41:00;99758;;;17.89;55.97
57250;BME280;43102;52.014;-0.680;2023-09-19T02:42:00;99758;;;17.89;55.97
57250;BME280;43102;52.014;-0.680;2023-09-19T02:43:00;99751;;;17.91;55.94
57250;BME280;43102;52.014;-0.680;2023-09-19T02:44:00;99751;;;17.91;55.94
57250;BME280;43102;52.014;-0.680;2023-09-19T02:45:00;99751;;;17.91;55.94
57250;BME280;43102;52.014;-0.680;2023-09-19T02:46:00;99751;;;17.91;55.94
57250;BME280;43102;52.014;-0.680;2023-09-19T02:47:00;99751;;;17.91;55.94
57250;BME280;43102;52.014;-0.680;2023-09-19T02:48:00;99758;;;17.87;56.62
57250;BME280;43102;52.014;-0.680;2023-09-19T02:49:00;99758;;;17.87;56.62
57250;BME280;43102;52.014;-0.680;2023-09-19T02:50:00;99758;;;17.87;56.62
57250;BME280;43102;52.014;-0.680;2023-09-19T02:51:00;99758;;;17.87;56.62
57250;BME280;43102;52.014;-0.680;2023-09-19T02:52:00;99758;;;17.87;56.62
57250;BME280;43102;52.014;-0.680;2023-09-19T02:53:00;99757;;;17.93;56.00
57250;BME280;43102;52.014;-0.680;2023-09-19T02:54:00;99757;;;17.93;56.00
57250;BME280;43102;52.014;-0.680;2023-09-19T02:55:00;99757;;;17.93;56.00
57250;BME280;43102;52.014;-0.680;2023-09-19T02:56:00;99757;;;17.93;56.00
57250;BME280;43102;52.014;-0.680;2023-09-19T02:57:00;99757;;;17.93;56.00
57250;BME280;43102;52.014;-0.680;2023-09-19T02:58:00;99766;;;18.01;56.33
57250;BME280;43102;52.014;-0.680;2023-09-19T02:59:00;99766;;;18.01;56.33
57250;BME280;43102;52.014;-0.680;2023-09-19T03:00:00;99766;;;18.01;56.33
57250;BME280;43102;52.014;-0.680;2023-09-19T03:01:07;99766;;;18.01;56.33
57250;BME280;43102;52.014;-0.680;2023-09-19T03:02:00;99766;;;18.01;56.33
57250;BME280;43102;52.014;-0.680;2023-09-19T03:03:00;99770;;;18.09;55.59
57250;BME280;43102;52.014;-0.680;2023-09-19T03:04:00;99770;;;18.09;55.59
57250;BME280;43102;52.014;-0.680;2023-09-19T03:05:00;99770;;;18.09;55.59
57250;BME280;43102;52.014;-0.680;2023-09-19T03:06:00;99770;;;18.09;55.59
57250;BME280;43102;52.014;-0.680;2023-09-19T03:07:00;99770;;;18.09;55.59
57250;BME280;43102;52.014;-0.680;2023-09-19T03:08:00;99761;;;18.17;55.34
57250;BME280;43102;52.014;-0.680;2023-09-19T03:09:00;99761;;;18.17;55.34
57250;BME280;43102;52.014;-0.680;2023-09-19T03:10:00;99761;;;18.17;55.34
57250;BME280;43102;52.014;-0.680;2023-09-19T03:11:00;99761;;;18.17;55.34
57250;BME280;43102;52.014;-0.680;2023-09-19T03:12:00;99761;;;18.17;55.34
57250;BME280;43102;52.014;-0.680;2023-09-19T03:13:00;99747;;;18.11;55.46
57250;BME280;43102;52.014;-0.680;2023-09-19T03:14:00;99747;;;18.11;55.46
57250;BME280;43102;52.014;-0.680;2023-09-19T03:15:00;99747;;;18.11;55.46
57250;BME280;43102;52.014;-0.680;2023-09-19T03:16:00;99747;;;18.11;55.46
57250;BME280;43102;52.014;-0.680;2023-09-19T03:17:00;99747;;;18.11;55.46
57250;BME280;43102;52.014;-0.680;2023-09-19T03:18:00;99754;;;18.15;55.37
57250;BME280;43102;52.014;-0.680;2023-09-19T03:19:00;99754;;;18.15;55.37
57250;BME280;43102;52.014;-0.680;2023-09-19T03:20:00;99754;;;18.15;55.37
57250;BME280;43102;52.014;-0.680;2023-09-19T03:21:00;99754;;;18.15;55.37
57250;BME280;43102;52.014;-0.680;2023-09-19T03:22:00;99754;;;18.15;55.37
57250;BME280;43102;52.014;-0.680;2023-09-19T03:23:00;99742;;;18.11;55.60
57250;BME280;43102;52.014;-0.680;2023-09-19T03:24:00;99742;;;18.11;55.60
57250;BME280;43102;52.014;-0.680;2023-09-19T03:25:00;99742;;;18.11;55.60
57250;BME280;43102;52.014;-0.680;2023-09-19T03:26:00;99742;;;18.11;55.60
57250;BME280;43102;52.014;-0.680;2023-09-19T03:27:00;99742;;;18.11;55.60
57250;BME280;43102;52.014;-0.680;2023-09-19T03:28:00;99738;;;18.13;55.94
57250;BME280;43102;52.014;-0.680;2023-09-19T03:29:03;99738;;;18.13;55.94
57250;BME280;43102;52.014;-0.680;2023-09-19T03:30:00;99738;;;18.13;55.94
57250;BME280;43102;52.014;-0.680;2023-09-19T03:31:01;99738;;;18.13;55.94
57250;BME280;43102;52.014;-0.680;2023-09-19T03:32:00;99738;;;18.13;55.94
57250;BME280;43102;52.014;-0.680;2023-09-19T03:33:00;99722;;;18.33;55.04
57250;BME280;43102;52.014;-0.680;2023-09-19T03:34:00;99722;;;18.33;55.04
57250;BME280;43102;52.014;-0.680;2023-09-19T03:35:00;99722;;;18.33;55.04
57250;BME280;43102;52.014;-0.680;2023-09-19T03:36:00;99722;;;18.33;55.04
57250;BME280;43102;52.014;-0.680;2023-09-19T03:37:00;99722;;;18.33;55.04
57250;BME280;43102;52.014;-0.680;2023-09-19T03:38:00;99711;;;18.33;55.03
57250;BME280;43102;52.014;-0.680;2023-09-19T03:39:00;99711;;;18.33;55.03
57250;BME280;43102;52.014;-0.680;2023-09-19T03:40:00;99711;;;18.33;55.03
57250;BME280;43102;52.014;-0.680;2023-09-19T03:41:00;99711;;;18.33;55.03
57250;BME280;43102;52.014;-0.680;2023-09-19T03:42:00;99711;;;18.33;55.03
57250;BME280;43102;52.014;-0.680;2023-09-19T03:43:00;99697;;;18.26;55.08
57250;BME280;43102;52.014;-0.680;2023-09-19T03:44:00;99697;;;18.26;55.08
57250;BME280;43102;52.014;-0.680;2023-09-19T03:45:00;99697;;;18.26;55.08
57250;BME280;43102;52.014;-0.680;2023-09-19T03:46:01;99697;;;18.26;55.08
57250;BME280;43102;52.014;-0.680;2023-09-19T03:47:00;99697;;;18.26;55.08
57250;BME280;43102;52.014;-0.680;2023-09-19T03:48:00;99692;;;18.31;54.94
57250;BME280;43102;52.014;-0.680;2023-09-19T03:49:00;99692;;;18.31;54.94
57250;BME280;43102;52.014;-0.680;2023-09-19T03:50:00;99692;;;18.31;54.94
57250;BME280;43102;52.014;-0.680;2023-09-19T03:51:00;99692;;;18.31;54.94
57250;BME280;43102;52.014;-0.680;2023-09-19T03:52:00;99692;;;18.31;54.94
57250;BME280;43102;52.014;-0.680;2023-09-19T03:53:00;99690;;;18.34;55.10
57250;BME280;43102;52.014;-0.680;2023-09-19T03:54:00;99690;;;18.34;55.10
57250;BME280;43102;52.014;-0.680;2023-09-19T03:55:00;99690;;;18.34;55.10
57250;BME280;43102;52.014;-0.680;2023-09-19T03:56:00;99690;;;18.34;55.10
57250;BME280;43102;52.014;-0.680;2023-09-19T03:57:00;99690;;;18.34;55.10
57250;BME280;43102;52.014;-0.680;2023-09-19T03:58:00;99684;;;18.33;55.51
57250;BME280;43102;52.014;-0.680;2023-09-19T03:59:00;99684;;;18.33;55.51
57250;BME280;43102;52.014;-0.680;2023-09-19T04:00:00;99684;;;18.33;55.51
57250;BME280;43102;52.014;-0.680;2023-09-19T04:01:00;99684;;;18.33;55.51
57250;BME280;43102;52.014;-0.680;2023-09-19T04:02:00;99684;;;18.33;55.51
57250;BME280;43102;52.014;-0.680;2023-09-19T04:03:00;99681;;;18.36;55.23
57250;BME280;43102;52.014;-0.680;2023-09-19T04:04:00;99681;;;18.36;55.23
57250;BME280;43102;52.014;-0.680;2023-09-19T04:05:00;99681;;;18.36;55.23
57250;BME280;43102;52.014;-0.680;2023-09-19T04:06:00;99681;;;18.36;55.23
57250;BME280;43102;52.014;-0.680;2023-09-19T04:07:00;99681;;;18.36;55.23
57250;BME280;43102;52.014;-0.680;2023-09-19T04:08:00;99676;;;18.42;55.15
57250;BME280;43102;52.014;-0.680;2023-09-19T04:09:00;99676;;;18.42;55.15
57250;BME280;43102;52.014;-0.680;2023-09-19T04:10:00;99676;;;18.42;55.15
57250;BME280;43102;52.014;-0.680;2023-09-19T04:11:00;99676;;;18.42;55.15
57250;BME280;43102;52.014;-0.680;2023-09-19T04:12:00;99676;;;18.42;55.15
57250;BME280;43102;52.014;-0.680;2023-09-19T04:13:00;99672;;;18.45;55.08
57250;BME280;43102;52.014;-0.680;2023-09-19T04:14:02;99672;;;18.45;55.08
57250;BME280;43102;52.014;-0.680;2023-09-19T04:15:00;99672;;;18.45;55.08
57250;BME280;43102;52.014;-0.680;2023-09-19T04:16:00;99672;;;18.45;55.08
57250;BME280;43102;52.014;-0.680;2023-09-19T04:17:00;99672;;;18.45;55.08
57250;BME280;43102;52.014;-0.680;2023-09-19T04:18:00;99654;;;18.57;54.55
57250;BME280;43102;52.014;-0.680;2023-09-19T04:19:00;99654;;;18.57;54.55
57250;BME280;43102;52.014;-0.680;2023-09-19T04:20:00;99654;;;18.57;54.55
57250;BME280;43102;52.014;-0.680;2023-09-19T04:21:00;99654;;;18.57;54.55
57250;BME280;43102;52.014;-0.680;2023-09-19T04:22:00;99654;;;18.57;54.55
57250;BME280;43102;52.014;-0.680;2023-09-19T04:23:00;99655;;;18.54;54.70
57250;BME280;43102;52.014;-0.680;2023-09-19T04:24:00;99655;;;18.54;54.70
57250;BME280;43102;52.014;-0.680;2023-09-19T04:25:00;99655;;;18.54;54.70
57250;BME280;43102;52.014;-0.680;2023-09-19T04:26:00;99655;;;18.54;54.70
57250;BME280;43102;52.014;-0.680;2023-09-19T04:27:00;99655;;;18.54;54.70
57250;BME280;43102;52.014;-0.680;2023-09-19T04:28:00;99660;;;18.60;54.94
57250;BME280;43102;52.014;-0.680;2023-09-19T04:29:00;99660;;;18.60;54.94
57250;BME280;43102;52.014;-0.680;2023-09-19T04:30:00;99660;;;18.60;54.94
57250;BME280;43102;52.014;-0.680;2023-09-19T04:31:00;99660;;;18.60;54.94
57250;BME280;43102;52.014;-0.680;2023-09-19T04:32:00;99660;;;18.60;54.94
57250;BME280;43102;52.014;-0.680;2023-09-19T04:33:00;99656;;;18.57;54.68
57250;BME280;43102;52.014;-0.680;2023-09-19T04:34:00;99656;;;18.57;54.68
57250;BME280;43102;52.014;-0.680;2023-09-19T04:35:00;99656;;;18.57;54.68
57250;BME280;43102;52.014;-0.680;2023-09-19T04:36:00;99656;;;18.57;54.68
57250;BME280;43102;52.014;-0.680;2023-09-19T04:37:00;99656;;;18.57;54.68
57250;BME280;43102;52.014;-0.680;2023-09-19T04:38:00;99653;;;18.67;54.56
57250;BME280;43102;52.014;-0.680;2023-09-19T04:39:00;99653;;;18.67;54.56
57250;BME280;43102;52.014;-0.680;2023-09-19T04:40:00;99653;;;18.67;54.56
57250;BME280;43102;52.014;-0.680;2023-09-19T04:41:00;99653;;;18.67;54.56
57250;BME280;43102;52.014;-0.680;2023-09-19T04:42:00;99653;;;18.67;54.56
57250;BME280;43102;52.014;-0.680;2023-09-19T04:43:00;99642;;;18.54;55.14
57250;BME280;43102;52.014;-0.680;2023-09-19T04:44:00;99642;;;18.54;55.14
57250;BME280;43102;52.014;-0.680;2023-09-19T04:45:00;99642;;;18.54;55.14
57250;BME280;43102;52.014;-0.680;2023-09-19T04:46:00;99642;;;18.54;55.14
57250;BME280;43102;52.014;-0.680;2023-09-19T04:47:00;99642;;;18.54;55.14
57250;BME280;43102;52.014;-0.680;2023-09-19T04:48:00;99643;;;18.63;54.86
57250;BME280;43102;52.014;-0.680;2023-09-19T04:49:00;99643;;;18.63;54.86
57250;BME280;43102;52.014;-0.680;2023-09-19T04:50:00;99643;;;18.63;54.86
57250;BME280;43102;52.014;-0.680;2023-09-19T04:51:00;99643;;;18.63;54.86
57250;BME280;43102;52.014;-0.680;2023-09-19T04:52:00;99643;;;18.63;54.86
57250;BME280;43102;52.014;-0.680;2023-09-19T04:53:00;99627;;;18.70;54.70
57250;BME280;43102;52.014;-0.680;2023-09-19T04:54:00;99627;;;18.70;54.70
57250;BME280;43102;52.014;-0.680;2023-09-19T04:55:00;99627;;;18.70;54.70
57250;BME280;43102;52.014;-0.680;2023-09-19T04:56:00;99627;;;18.70;54.70
57250;BME280;43102;52.014;-0.680;2023-09-19T04:57:00;99627;;;18.70;54.70
57250;BME280;43102;52.014;-0.680;2023-09-19T04:58:00;99622;;;18.77;54.99
57250;BME280;43102;52.014;-0.680;2023-09-19T04:59:00;99622;;;18.77;54.99
57250;BME280;43102;52.014;-0.680;2023-09-19T05:00:00;99622;;;18.77;54.99
57250;BME280;43102;52.014;-0.680;2023-09-19T05:01:00;99622;;;18.77;54.99
57250;BME280;43102;52.014;-0.680;2023-09-19T05:02:00;99622;;;18.77;54.99
57250;BME280;43102;52.014;-0.680;2023-09-19T05:03:00;99619;;;18.75;54.93
57250;BME280;43102;52.014;-0.680;2023-09-19T05:04:00;99619;;;18.75;54.93
57250;BME280;43102;52.014;-0.680;2023-09-19T05:05:00;99619;;;18.75;54.93
57250;BME280;43102;52.014;-0.680;2023-09-19T05:06:00;99619;;;18.75;54.93
57250;BME280;43102;52.014;-0.680;2023-09-19T05:07:00;99619;;;18.75;54.93
57250;BME280;43102;52.014;-0.680;2023-09-19T05:08:00;99621;;;18.76;54.89
57250;BME280;43102;52.014;-0.680;2023-09-19T05:09:00;99621;;;18.76;54.89
57250;BME280;43102;52.014;-0.680;2023-09-19T05:10:00;99621;;;18.76;54.89
57250;BME280;43102;52.014;-0.680;2023-09-19T05:11:01;99621;;;18.76;54.89
57250;BME280;43102;52.014;-0.680;2023-09-19T05:12:00;99621;;;18.76;54.89
57250;BME280;43102;52.014;-0.680;2023-09-19T05:13:00;99610;;;18.90;54.66
57250;BME280;43102;52.014;-0.680;2023-09-19T05:14:00;99610;;;18.90;54.66
57250;BME280;43102;52.014;-0.680;2023-09-19T05:15:00;99610;;;18.90;54.66
57250;BME280;43102;52.014;-0.680;2023-09-19T05:16:00;99610;;;18.90;54.66
57250;BME280;43102;52.014;-0.680;2023-09-19T05:17:00;99610;;;18.90;54.66
57250;BME280;43102;52.014;-0.680;2023-09-19T05:18:00;99615;;;18.90;54.72
57250;BME280;43102;52.014;-0.680;2023-09-19T05:19:00;99615;;;18.90;54.72
57250;BME280;43102;52.014;-0.680;2023-09-19T05:20:00;99615;;;18.90;54.72
57250;BME280;43102;52.014;-0.680;2023-09-19T05:21:01;99615;;;18.90;54.72
57250;BME280;43102;52.014;-0.680;2023-09-19T05:22:00;99615;;;18.90;54.72
57250;BME280;43102;52.014;-0.680;2023-09-19T05:23:01;99614;;;18.87;54.78
57250;BME280;43102;52.014;-0.680;2023-09-19T05:24:00;99614;;;18.87;54.78
57250;BME280;43102;52.014;-0.680;2023-09-19T05:25:00;99614;;;18.87;54.78
57250;BME280;43102;52.014;-0.680;2023-09-19T05:26:00;99614;;;18.87;54.78
57250;BME280;43102;52.014;-0.680;2023-09-19T05:27:00;99614;;;18.87;54.78
57250;BME280;43102;52.014;-0.680;2023-09-19T05:28:00;99605;;;18.91;55.02
57250;BME280;43102;52.014;-0.680;2023-09-19T05:29:00;99605;;;18.91;55.02
57250;BME280;43102;52.014;-0.680;2023-09-19T05:30:00;99605;;;18.91;55.02
57250;BME280;43102;52.014;-0.680;2023-09-19T05:31:01;99605;;;18.91;55.02
57250;BME280;43102;52.014;-0.680;2023-09-19T05:32:00;99605;;;18.91;55.02
57250;BME280;43102;52.014;-0.680;2023-09-19T05:33:00;99600;;;19.12;54.25
57250;BME280;43102;52.014;-0.680;2023-09-19T05:34:00;99600;;;19.12;54.25
57250;BME280;43102;52.014;-0.680;2023-09-19T05:35:00;99600;;;19.12;54.25
57250;BME280;43102;52.014;-0.680;2023-09-19T05:36:00;99600;;;19.12;54.25
57250;BME280;43102;52.014;-0.680;2023-09-19T05:37:00;99600;;;19.12;54.25
57250;BME280;43102;52.014;-0.680;2023-09-19T05:38:00;99590;;;19.04;54.44
57250;BME280;43102;52.014;-0.680;2023-09-19T05:39:00;99590;;;19.04;54.44